Time;durP1;ratioP1;P1;durP2;ratioP2;P2;SDS_P1;SDS_P2;PMS_P1;PMS_P2;Temp;Humidity;BMP_temperature;BMP_pressure;BME280_temperature;BME280_humidity;BME280_pressure;Samples;Min_cycle;Max_cycle;Signal;HPM_P1;HPM_P2
2023/03/01 04:02:21;;;;;;;8.47;7.67;;;2.60;70.00;;;;;;5180969;23;20594;-72
2023/03/01 04:04:49;;;;;;;9.13;8.23;;;2.60;70.00;;;;;;4956999;29;20435;-73
2023/03/01 04:07:16;;;;;;;8.97;8.17;;;2.60;70.00;;;;;;4956941;29;20456;-72
2023/03/01 04:09:43;;;;;;;8.73;7.90;;;2.60;69.80;;;;;;4956524;29;20447;-73
2023/03/01 04:12:10;;;;;;;8.03;7.33;;;2.60;70.00;;;;;;4956775;29;20558;-71
2023/03/01 04:14:37;;;;;;;8.33;7.37;;;2.70;69.90;;;;;;4957321;29;20487;-72
2023/03/01 04:17:05;;;;;;;9.37;8.47;;;2.60;69.80;;;;;;4956751;29;20806;-72
2023/03/01 04:19:35;;;;;;;9.60;8.70;;;2.60;69.90;;;;;;4956611;29;20884;-72
2023/03/01 04:22:07;;;;;;;7.77;7.00;;;2.60;70.10;;;;;;4956564;29;20471;-72
2023/03/01 04:24:34;;;;;;;9.17;8.23;;;2.60;70.00;;;;;;4956559;29;20432;-72
2023/03/01 04:27:00;;;;;;;7.73;7.03;;;2.70;69.70;;;;;;4956571;29;20455;-71
2023/03/01 04:29:27;;;;;;;8.40;7.70;;;2.70;69.60;;;;;;4957049;29;20451;-72
2023/03/01 04:31:54;;;;;;;9.27;8.47;;;2.80;69.60;;;;;;4956374;29;20550;-72
2023/03/01 04:34:20;;;;;;;8.40;7.60;;;2.80;69.60;;;;;;4956312;29;20483;-71
2023/03/01 04:36:48;;;;;;;8.33;7.53;;;2.80;69.70;;;;;;4956390;29;20458;-72
2023/03/01 04:39:15;;;;;;;8.90;7.97;;;2.80;69.90;;;;;;4956352;29;20498;-72
2023/03/01 04:41:43;;;;;;;9.03;8.23;;;2.80;69.80;;;;;;4955652;28;20471;-72
2023/03/01 04:44:10;;;;;;;8.33;7.53;;;2.90;69.40;;;;;;4956386;29;20890;-72
2023/03/01 04:46:37;;;;;;;8.50;7.70;;;2.90;69.60;;;;;;4956387;29;20498;-72
2023/03/01 04:49:04;;;;;;;8.83;7.93;;;2.80;69.80;;;;;;4956199;29;20795;-72
2023/03/01 04:51:32;;;;;;;8.70;7.80;;;2.80;69.80;;;;;;4955995;29;21038;-72
2023/03/01 04:54:01;;;;;;;9.50;8.60;;;2.80;70.10;;;;;;4956493;29;20901;-72
2023/03/01 04:56:27;;;;;;;9.07;7.77;;;2.90;70.00;;;;;;4956338;29;20543;-72
2023/03/01 04:58:55;;;;;;;9.10;8.20;;;2.90;69.90;;;;;;4956138;29;20514;-72
2023/03/01 05:01:22;;;;;;;8.83;7.93;;;3.00;69.90;;;;;;4955733;29;20530;-73
2023/03/01 05:03:51;;;;;;;9.03;8.10;;;3.00;69.90;;;;;;4955900;29;20512;-71
2023/03/01 05:06:19;;;;;;;9.40;8.50;;;3.10;69.80;;;;;;4955846;29;20497;-71
2023/03/01 05:08:45;;;;;;;9.07;8.17;;;3.10;69.50;;;;;;4956055;29;20450;-72
2023/03/01 05:11:14;;;;;;;9.53;8.67;;;2.90;69.70;;;;;;4955704;29;20470;-72
2023/03/01 05:13:40;;;;;;;8.97;8.07;;;3.00;69.60;;;;;;4955393;29;20941;-72
2023/03/01 05:16:10;;;;;;;8.90;7.97;;;3.00;69.60;;;;;;4955641;29;20538;-72
2023/03/01 05:18:38;;;;;;;9.67;8.77;;;3.00;69.80;;;;;;4955370;29;20941;-71
2023/03/01 05:21:06;;;;;;;8.70;7.90;;;3.10;69.30;;;;;;4955628;29;20471;-73
2023/03/01 05:23:34;;;;;;;8.33;7.53;;;3.10;69.40;;;;;;4955598;29;20451;-72
2023/03/01 05:26:02;;;;;;;9.30;8.50;;;3.10;69.80;;;;;;4955549;29;20447;-72
2023/03/01 05:28:30;;;;;;;9.87;9.00;;;3.10;69.50;;;;;;4955570;29;20459;-72
2023/03/01 05:30:58;;;;;;;10.07;9.07;;;3.00;69.70;;;;;;4955416;29;20530;-73
2023/03/01 05:33:25;;;;;;;8.40;7.60;;;3.00;69.70;;;;;;4955437;29;20451;-72
2023/03/01 05:35:53;;;;;;;7.97;7.20;;;3.10;69.70;;;;;;4955031;29;21003;-73
2023/03/01 05:38:21;;;;;;;9.20;8.40;;;3.10;69.50;;;;;;4955412;29;20538;-72
2023/03/01 05:40:49;;;;;;;10.80;8.60;;;3.20;69.30;;;;;;4955233;29;20486;-73
2023/03/01 05:43:17;;;;;;;9.30;8.40;;;3.10;69.30;;;;;;4955324;29;20447;-73
2023/03/01 05:45:45;;;;;;;9.10;8.30;;;3.00;70.00;;;;;;4955256;29;20447;-72
2023/03/01 05:48:13;;;;;;;8.93;8.07;;;3.00;70.10;;;;;;4955248;29;20538;-72
2023/03/01 05:50:42;;;;;;;9.93;8.97;;;3.00;70.10;;;;;;4954837;29;20471;-73
2023/03/01 05:53:12;;;;;;;9.37;8.53;;;3.00;70.10;;;;;;4955152;29;20455;-72
2023/03/01 05:55:39;;;;;;;8.40;7.63;;;3.00;70.20;;;;;;4955138;29;20479;-73
2023/03/01 05:58:09;;;;;;;10.40;8.77;;;3.00;70.10;;;;;;4955255;29;20455;-72
2023/03/01 06:00:36;;;;;;;11.10;10.10;;;3.10;70.20;;;;;;4955038;29;20435;-73
2023/03/01 06:03:04;;;;;;;9.80;8.90;;;3.10;70.30;;;;;;4955983;29;20431;-72
2023/03/01 06:05:31;;;;;;;9.57;8.67;;;3.10;70.00;;;;;;4954974;29;20941;-72
2023/03/01 06:08:00;;;;;;;9.07;8.17;;;3.10;69.90;;;;;;4955071;29;20460;-72
2023/03/01 06:10:27;;;;;;;9.23;8.43;;;3.20;69.90;;;;;;4955118;29;20490;-71
2023/03/01 06:12:54;;;;;;;8.67;7.87;;;3.20;69.80;;;;;;4955997;29;20447;-72
2023/03/01 06:15:21;;;;;;;9.73;8.77;;;3.10;69.90;;;;;;4955511;29;20534;-72
2023/03/01 06:17:48;;;;;;;9.17;8.30;;;3.00;70.20;;;;;;4955177;29;20455;-72
2023/03/01 06:20:18;;;;;;;8.60;7.70;;;3.00;70.30;;;;;;4955039;29;20459;-72
2023/03/01 06:22:46;;;;;;;8.87;8.07;;;3.00;70.20;;;;;;4955276;29;20447;-72
2023/03/01 06:25:14;;;;;;;8.83;8.03;;;3.10;70.00;;;;;;4955011;29;20450;-72
2023/03/01 06:27:41;;;;;;;9.23;8.23;;;3.00;70.10;;;;;;4955095;29;20447;-73
2023/03/01 06:30:10;;;;;;;8.37;7.57;;;2.80;70.90;;;;;;4954892;29;20457;-73
2023/03/01 06:32:37;;;;;;;9.73;8.83;;;2.90;70.80;;;;;;4954854;29;20474;-73
2023/03/01 06:35:04;;;;;;;9.43;8.60;;;3.00;70.50;;;;;;4954757;29;20542;-73
2023/03/01 06:37:32;;;;;;;9.40;8.60;;;3.10;70.30;;;;;;4954829;29;20498;-72
2023/03/01 06:39:59;;;;;;;9.53;8.63;;;3.20;69.90;;;;;;4954803;29;20498;-73
2023/03/01 06:42:25;;;;;;;9.10;8.20;;;3.30;69.90;;;;;;4954719;29;20475;-73
2023/03/01 06:44:52;;;;;;;9.07;8.27;;;3.60;69.60;;;;;;4954493;29;20968;-73
2023/03/01 06:47:19;;;;;;;8.50;7.70;;;3.80;68.80;;;;;;4954456;29;21007;-73
2023/03/01 06:49:45;;;;;;;9.47;8.47;;;4.20;67.70;;;;;;4954441;29;20459;-73
2023/03/01 06:52:12;;;;;;;10.00;9.00;;;4.40;66.80;;;;;;4954619;29;20462;-73
2023/03/01 06:54:40;;;;;;;9.90;9.00;;;4.90;65.60;;;;;;4954578;29;20447;-73
2023/03/01 06:57:06;;;;;;;9.80;8.90;;;5.20;64.10;;;;;;4954580;29;20447;-73
2023/03/01 06:59:33;;;;;;;8.80;8.00;;;5.80;63.30;;;;;;4954525;29;20447;-73
2023/03/01 07:02:00;;;;;;;8.33;7.57;;;6.30;61.40;;;;;;4954373;29;20495;-73
2023/03/01 07:04:28;;;;;;;8.10;7.30;;;7.10;60.30;;;;;;4954606;28;20455;-73
2023/03/01 07:06:55;;;;;;;8.53;7.63;;;8.00;57.90;;;;;;4957937;29;20447;-73
2023/03/01 07:09:22;;;;;;;8.57;7.77;;;8.90;55.90;;;;;;4957967;29;20861;-73
2023/03/01 07:11:50;;;;;;;7.93;7.23;;;9.50;53.90;;;;;;4957923;29;20885;-73
2023/03/01 07:14:19;;;;;;;9.43;8.00;;;10.10;51.50;;;;;;4957950;29;20526;-73
2023/03/01 07:16:46;;;;;;;8.97;8.07;;;10.30;51.80;;;;;;4957839;29;20573;-74
2023/03/01 07:19:12;;;;;;;9.47;8.20;;;11.30;49.30;;;;;;4957830;29;20455;-73
2023/03/01 07:21:39;;;;;;;8.33;7.53;;;11.70;48.20;;;;;;4957740;29;20534;-73
2023/03/01 07:24:07;;;;;;;8.17;7.40;;;11.60;47.90;;;;;;4957724;29;20503;-73
2023/03/01 07:26:34;;;;;;;9.00;8.20;;;11.80;47.60;;;;;;4958516;29;20455;-74
2023/03/01 07:29:03;;;;;;;8.40;7.70;;;12.60;47.00;;;;;;4957867;29;20454;-73
2023/03/01 07:31:30;;;;;;;8.93;8.07;;;13.80;44.40;;;;;;4957610;29;20467;-74
2023/03/01 07:33:57;;;;;;;8.63;7.83;;;13.70;44.00;;;;;;4957617;29;20455;-75
2023/03/01 07:36:24;;;;;;;7.53;6.90;;;14.10;42.90;;;;;;4957431;29;20487;-73
2023/03/01 07:38:51;;;;;;;8.10;7.50;;;14.20;43.40;;;;;;4957552;29;20455;-73
2023/03/01 07:41:18;;;;;;;8.90;8.10;;;14.50;42.00;;;;;;4957042;29;20984;-73
2023/03/01 07:43:45;;;;;;;8.13;7.47;;;15.10;41.50;;;;;;4957385;29;20873;-74
2023/03/01 07:46:13;;;;;;;7.60;6.90;;;13.60;42.80;;;;;;4957367;29;20514;-74
2023/03/01 07:48:40;;;;;;;8.03;7.27;;;14.40;42.40;;;;;;4957291;29;20510;-73
2023/03/01 07:51:07;;;;;;;7.67;7.00;;;14.80;41.00;;;;;;4956848;29;21008;-74
2023/03/01 07:53:34;;;;;;;8.17;7.50;;;15.10;41.60;;;;;;4957223;29;20455;-74
2023/03/01 07:56:02;;;;;;;8.80;8.10;;;15.90;40.50;;;;;;4957048;29;20486;-73
2023/03/01 07:58:29;;;;;;;9.10;8.20;;;16.90;38.80;;;;;;4957140;29;20542;-72
2023/03/01 08:00:56;;;;;;;9.80;9.00;;;17.00;37.70;;;;;;4956835;29;20483;-74
2023/03/01 08:03:24;;;;;;;8.87;8.10;;;17.30;38.10;;;;;;4957115;29;20846;-74
2023/03/01 08:05:50;;;;;;;8.87;7.80;;;17.40;37.10;;;;;;4956987;29;20444;-74
2023/03/01 08:08:17;;;;;;;9.17;8.47;;;16.60;38.40;;;;;;4956652;29;20940;-74
2023/03/01 08:10:44;;;;;;;8.83;8.10;;;15.80;39.60;;;;;;4956813;29;20463;-75
2023/03/01 08:13:11;;;;;;;8.40;7.70;;;14.90;40.30;;;;;;4956857;29;20502;-74
2023/03/01 08:15:37;;;;;;;9.07;8.37;;;13.70;42.60;;;;;;4956573;28;20491;-74
2023/03/01 08:18:04;;;;;;;8.50;7.80;;;12.90;43.70;;;;;;4955902;29;20455;-74
2023/03/01 08:20:32;;;;;;;10.27;9.27;;;11.30;46.30;;;;;;4956679;29;20455;-74
2023/03/01 08:22:59;;;;;;;8.77;7.97;;;10.30;48.60;;;;;;4956681;29;20451;-73
2023/03/01 08:25:25;;;;;;;8.90;8.10;;;9.40;50.80;;;;;;4956844;29;20443;-73
2023/03/01 08:27:52;;;;;;;9.63;8.73;;;8.50;52.60;;;;;;4956506;29;20451;-72
2023/03/01 08:30:20;;;;;;;9.80;8.23;;;7.80;54.70;;;;;;4956470;29;20455;-72
2023/03/01 08:32:47;;;;;;;10.03;9.07;;;7.30;55.90;;;;;;4956467;29;20457;-72
2023/03/01 08:35:13;;;;;;;9.03;8.23;;;6.80;57.60;;;;;;4956359;29;20451;-72
2023/03/01 08:37:41;;;;;;;9.67;8.77;;;6.40;58.10;;;;;;4956354;29;20507;-72
2023/03/01 08:40:09;;;;;;;9.43;8.63;;;6.60;58.80;;;;;;4956307;29;20451;-72
2023/03/01 08:42:37;;;;;;;9.70;8.80;;;6.20;59.00;;;;;;4955909;29;21003;-72
2023/03/01 08:45:04;;;;;;;10.80;9.90;;;5.70;60.10;;;;;;4956198;29;20450;-71
2023/03/01 08:47:30;;;;;;;9.10;8.30;;;5.50;61.30;;;;;;4956263;29;20510;-72
2023/03/01 08:49:57;;;;;;;9.73;8.83;;;5.50;61.70;;;;;;4956179;29;20478;-71
2023/03/01 08:52:24;;;;;;;10.63;9.63;;;5.40;62.10;;;;;;4956055;29;20466;-72
2023/03/01 08:54:52;;;;;;;11.20;10.10;;;5.70;61.30;;;;;;4955741;29;20506;-71
2023/03/01 08:57:19;;;;;;;10.40;9.40;;;5.50;61.50;;;;;;4956032;29;20494;-73
2023/03/01 08:59:45;;;;;;;9.70;8.90;;;5.50;62.10;;;;;;4955981;29;20455;-73
2023/03/01 09:02:15;;;;;;;10.47;9.47;;;5.50;62.40;;;;;;4955557;29;20486;-73
2023/03/01 09:04:41;;;;;;;8.77;8.03;;;5.50;61.70;;;;;;4955719;29;20945;-73
2023/03/01 09:07:09;;;;;;;9.50;8.60;;;5.20;62.50;;;;;;4955877;29;20443;-73
2023/03/01 09:09:36;;;;;;;12.63;9.90;;;5.20;63.00;;;;;;4955995;29;20451;-73
2023/03/01 09:12:04;;;;;;;11.13;10.13;;;5.00;62.60;;;;;;4955701;29;20558;-72
2023/03/01 09:14:31;;;;;;;10.20;9.30;;;5.10;63.10;;;;;;4955929;29;20506;-73
2023/03/01 09:16:58;;;;;;;10.27;9.37;;;5.00;63.60;;;;;;4955697;29;20529;-72
2023/03/01 09:19:24;;;;;;;10.70;9.70;;;5.10;63.60;;;;;;4955731;29;20816;-73
2023/03/01 09:21:52;;;;;;;10.03;9.10;;;5.00;63.70;;;;;;4955856;29;20502;-73
2023/03/01 09:24:21;;;;;;;10.50;9.50;;;5.00;63.20;;;;;;4955547;29;20462;-73
2023/03/01 09:26:48;;;;;;;10.57;9.60;;;4.50;64.10;;;;;;4955322;29;20944;-71
2023/03/01 09:29:17;;;;;;;10.40;9.60;;;4.30;65.20;;;;;;4954930;28;20455;-73
2023/03/01 09:31:43;;;;;;;10.50;9.60;;;4.40;65.00;;;;;;4955579;29;20475;-73
2023/03/01 09:34:10;;;;;;;11.50;9.87;;;4.50;65.60;;;;;;4955481;29;20461;-73
2023/03/01 09:36:37;;;;;;;10.67;9.57;;;4.60;65.00;;;;;;4955513;29;20903;-72
2023/03/01 09:39:05;;;;;;;9.60;8.70;;;4.70;64.20;;;;;;4955234;29;20940;-73
2023/03/01 09:41:46;;;;;;;8.93;8.03;;;4.70;63.80;;;;;;4955401;29;20502;-72
2023/03/01 09:44:22;;;;;;;9.40;8.50;;;5.00;64.40;;;;;;4955882;29;20490;-72
2023/03/01 09:46:49;;;;;;;10.17;9.10;;;4.90;64.10;;;;;;4955492;29;20486;-73
2023/03/01 09:49:19;;;;;;;10.20;9.30;;;4.90;63.90;;;;;;4955322;29;20448;-73
2023/03/01 09:51:58;;;;;;;9.37;8.47;;;4.80;63.90;;;;;;4955358;29;20467;-74
2023/03/01 09:54:25;;;;;;;10.43;9.43;;;5.00;63.80;;;;;;4956097;29;20446;-74
2023/03/01 09:57:07;;;;;;;9.50;8.60;;;4.90;64.40;;;;;;4955261;29;20487;-74
2023/03/01 09:59:49;;;;;;;11.50;10.30;;;5.10;63.90;;;;;;4955826;29;20488;-72
2023/03/01 10:02:28;;;;;;;11.13;9.70;;;5.50;63.90;;;;;;4954906;29;20530;-73
2023/03/01 10:05:01;;;;;;;9.80;8.80;;;5.60;61.90;;;;;;4955369;29;20498;-73
2023/03/01 10:07:36;;;;;;;9.87;8.90;;;5.50;62.20;;;;;;4955224;29;20849;-74
2023/03/01 10:10:07;;;;;;;10.03;9.03;;;5.20;62.70;;;;;;4955185;29;20438;-73
2023/03/01 10:15:10;;;;;;;9.90;9.00;;;5.30;62.60;;;;;;4935374;29;20543;-71
2023/03/01 10:17:40;;;;;;;9.13;8.23;;;5.20;63.30;;;;;;4936513;29;20476;-71
2023/03/01 10:20:17;;;;;;;9.90;8.93;;;5.20;62.70;;;;;;4936244;29;20529;-71
2023/03/01 10:22:48;;;;;;;9.70;8.70;;;5.50;62.60;;;;;;4936379;29;20440;-70
2023/03/01 10:25:16;;;;;;;9.87;8.90;;;5.50;62.30;;;;;;4935580;29;20539;-70
2023/03/01 10:27:50;;;;;;;9.37;8.47;;;5.50;63.00;;;;;;4935751;29;20807;-70
2023/03/01 10:30:23;;;;;;;10.07;9.07;;;5.40;62.60;;;;;;4935797;29;20452;-70
2023/03/01 10:32:53;;;;;;;9.80;8.90;;;5.50;62.30;;;;;;4935722;29;20432;-70
2023/03/01 10:35:22;;;;;;;10.20;9.20;;;5.60;61.80;;;;;;4935920;29;20456;-70
2023/03/01 10:37:59;;;;;;;9.80;8.80;;;5.80;62.00;;;;;;4935586;29;20543;-69
2023/03/01 10:40:26;;;;;;;9.73;8.83;;;5.80;61.40;;;;;;4937214;29;20569;-71
2023/03/01 10:42:53;;;;;;;9.87;8.97;;;6.00;61.40;;;;;;4939178;29;20455;-71
2023/03/01 10:45:32;;;;;;;10.53;9.53;;;6.20;60.80;;;;;;4939330;29;20805;-71
2023/03/01 10:48:11;;;;;;;9.83;9.03;;;6.00;60.70;;;;;;4939154;29;20491;-72
2023/03/01 10:50:39;;;;;;;9.33;8.43;;;5.90;61.00;;;;;;4939077;29;20464;-70
2023/03/01 10:53:24;;;;;;;9.50;8.53;;;6.00;61.50;;;;;;4939017;29;20472;-70
2023/03/01 10:55:59;;;;;;;9.43;8.63;;;6.10;60.70;;;;;;4939141;29;20472;-70
2023/03/01 10:58:25;;;;;;;9.83;8.90;;;6.10;61.60;;;;;;4938770;29;20914;-70
2023/03/01 11:00:55;;;;;;;9.27;8.37;;;6.30;61.00;;;;;;4939027;29;20864;-70
2023/03/01 11:03:24;;;;;;;10.60;9.70;;;6.40;59.60;;;;;;4938802;29;20467;-70
2023/03/01 11:06:07;;;;;;;8.87;8.07;;;6.30;60.50;;;;;;4939784;29;20455;-70
2023/03/01 11:08:39;;;;;;;10.67;9.63;;;6.50;60.30;;;;;;4940323;29;21008;-70
2023/03/01 11:11:18;;;;;;;10.23;9.30;;;6.50;59.70;;;;;;4940628;29;20458;-70
2023/03/01 11:13:59;;;;;;;10.70;9.80;;;6.40;60.10;;;;;;4939796;29;20484;-71
2023/03/01 11:16:36;;;;;;;9.20;8.33;;;6.50;60.50;;;;;;4940957;29;20491;-72
2023/03/01 11:19:16;;;;;;;10.23;9.23;;;6.60;60.10;;;;;;4942583;29;20459;-70
2023/03/01 11:21:51;;;;;;;9.30;8.50;;;6.80;59.40;;;;;;4940153;29;20432;-70
2023/03/01 11:24:20;;;;;;;8.50;7.80;;;7.00;58.60;;;;;;4938482;29;20486;-70
2023/03/01 11:26:52;;;;;;;8.87;8.07;;;7.00;58.40;;;;;;4938468;29;20452;-69
2023/03/01 11:29:28;;;;;;;9.03;8.13;;;7.10;58.70;;;;;;4938768;29;20436;-71
2023/03/01 11:32:01;;;;;;;9.60;8.67;;;7.10;58.50;;;;;;4938535;29;20491;-70
2023/03/01 11:34:39;;;;;;;9.00;8.10;;;7.40;58.50;;;;;;4938074;29;20553;-71
2023/03/01 11:37:27;;;;;;;9.90;9.00;;;7.60;57.80;;;;;;4938861;29;20940;-70
2023/03/01 11:40:00;;;;;;;10.07;9.13;;;7.20;57.50;;;;;;4938359;29;20513;-70
2023/03/01 11:42:44;;;;;;;10.80;9.80;;;7.10;58.20;;;;;;4937949;29;20539;-70
2023/03/01 11:45:13;;;;;;;8.87;8.07;;;7.00;59.10;;;;;;4938246;29;20455;-70
2023/03/01 11:47:56;;;;;;;9.30;8.40;;;7.00;59.10;;;;;;4938392;29;20451;-71
2023/03/01 11:50:31;;;;;;;8.60;7.80;;;7.10;58.60;;;;;;4937883;29;20464;-71
2023/03/01 11:53:09;;;;;;;9.03;8.23;;;7.20;58.40;;;;;;4937997;29;20480;-70
2023/03/01 11:55:59;;;;;;;9.80;8.90;;;7.20;58.40;;;;;;4938035;29;20475;-71
2023/03/01 11:58:54;;;;;;;9.10;8.30;;;7.30;57.80;;;;;;4937884;29;20555;-71
2023/03/01 12:01:43;;;;;;;8.57;7.77;;;7.40;58.00;;;;;;4938775;29;20437;-71
2023/03/01 12:04:36;;;;;;;9.73;8.83;;;7.60;56.90;;;;;;4937884;29;20827;-70
2023/03/01 12:07:09;;;;;;;9.00;8.20;;;7.40;57.50;;;;;;4931446;29;20460;-71
2023/03/01 12:10:06;;;;;;;8.77;8.03;;;7.50;57.70;;;;;;4938309;29;20468;-71
2023/03/01 12:12:45;;;;;;;8.60;7.90;;;7.60;57.30;;;;;;4936818;29;20468;-71
2023/03/01 12:15:39;;;;;;;8.33;7.53;;;7.80;56.70;;;;;;4937975;29;20940;-72
2023/03/01 12:18:33;;;;;;;10.50;8.90;;;7.90;57.00;;;;;;4937991;29;20536;-71
2023/03/01 12:21:10;;;;;;;7.90;7.23;;;8.20;55.80;;;;;;4938064;29;20467;-72
2023/03/01 12:24:01;;;;;;;9.10;8.30;;;8.30;55.50;;;;;;4938199;29;20498;-72
2023/03/01 12:26:32;;;;;;;8.60;7.80;;;8.10;55.30;;;;;;4937669;29;20511;-72
2023/03/01 12:29:24;;;;;;;8.57;7.77;;;8.30;56.10;;;;;;4937332;29;20448;-72
2023/03/01 12:32:05;;;;;;;9.20;7.90;;;8.60;55.00;;;;;;4938745;29;20437;-71
2023/03/01 12:34:49;;;;;;;8.50;7.70;;;8.60;55.10;;;;;;4937582;29;20479;-71
2023/03/01 12:37:26;;;;;;;8.07;7.27;;;8.90;54.90;;;;;;4937243;29;20564;-71
2023/03/01 12:40:04;;;;;;;8.87;7.50;;;8.80;55.00;;;;;;4937358;29;20440;-71
2023/03/01 12:42:36;;;;;;;7.97;7.27;;;8.90;54.20;;;;;;4937112;29;20487;-71
2023/03/01 12:45:26;;;;;;;8.50;7.80;;;9.20;53.80;;;;;;4937145;29;20468;-71
2023/03/01 12:48:06;;;;;;;8.73;7.90;;;9.20;53.90;;;;;;4937253;29;20476;-72
2023/03/01 12:50:41;;;;;;;8.50;7.70;;;9.00;53.90;;;;;;4937384;29;20444;-72
2023/03/01 12:53:20;;;;;;;9.07;8.27;;;9.10;53.70;;;;;;4937266;29;20483;-71
2023/03/01 12:55:48;;;;;;;8.20;7.50;;;8.90;54.50;;;;;;4937187;29;20436;-72
2023/03/01 12:58:25;;;;;;;9.10;8.30;;;9.10;53.70;;;;;;4937246;29;20495;-71
2023/03/01 13:01:03;;;;;;;9.90;8.80;;;9.30;54.40;;;;;;4937694;29;20443;-70
2023/03/01 13:03:39;;;;;;;7.73;7.00;;;9.30;53.40;;;;;;4937154;29;20472;-72
2023/03/01 13:06:13;;;;;;;8.80;8.00;;;9.90;53.90;;;;;;4937255;29;20475;-72
2023/03/01 13:08:49;;;;;;;8.27;7.57;;;10.30;52.10;;;;;;4936826;29;20436;-73
2023/03/01 13:11:19;;;;;;;7.70;7.00;;;10.50;51.20;;;;;;4937238;29;20436;-72
2023/03/01 13:13:46;;;;;;;8.77;7.97;;;10.50;50.90;;;;;;4936464;29;20484;-72
2023/03/01 13:16:39;;;;;;;8.47;7.67;;;10.40;51.50;;;;;;4936543;29;20459;-71
2023/03/01 13:19:14;;;;;;;7.10;6.40;;;10.50;51.00;;;;;;4936460;29;20519;-71
2023/03/01 13:21:41;;;;;;;7.70;7.00;;;10.40;51.40;;;;;;4936150;29;20981;-72
2023/03/01 13:24:28;;;;;;;7.70;7.03;;;10.10;51.60;;;;;;4936291;29;20475;-71
2023/03/01 13:27:28;;;;;;;8.80;7.90;;;10.00;52.00;;;;;;4936219;29;20914;-70
2023/03/01 13:29:59;;;;;;;7.47;6.77;;;10.30;52.20;;;;;;4936448;29;20518;-70
2023/03/01 13:32:28;;;;;;;7.07;6.47;;;10.20;52.50;;;;;;4936306;29;20437;-70
2023/03/01 13:35:00;;;;;;;7.87;7.07;;;10.60;51.30;;;;;;4936088;29;20503;-70
2023/03/01 13:37:36;;;;;;;8.67;7.87;;;10.60;51.60;;;;;;4936166;29;20885;-71
2023/03/01 13:40:22;;;;;;;6.93;6.33;;;10.40;51.50;;;;;;4936111;29;20455;-72
2023/03/01 13:42:50;;;;;;;8.20;7.50;;;10.30;51.80;;;;;;4935055;29;20459;-70
2023/03/01 13:45:21;;;;;;;7.53;6.83;;;10.60;51.40;;;;;;4936078;29;20464;-70
2023/03/01 13:47:52;;;;;;;6.97;6.33;;;10.90;50.90;;;;;;4936024;29;20433;-70
2023/03/01 13:50:24;;;;;;;7.30;6.60;;;11.20;50.20;;;;;;4936063;29;20436;-70
2023/03/01 13:52:54;;;;;;;6.60;6.00;;;11.50;49.60;;;;;;4935975;29;20443;-70
2023/03/01 13:55:25;;;;;;;8.30;7.50;;;12.00;49.00;;;;;;4936014;29;20452;-71
2023/03/01 13:57:57;;;;;;;7.00;6.40;;;12.50;47.40;;;;;;4935877;29;20469;-71
2023/03/01 14:00:30;;;;;;;6.87;6.27;;;13.50;46.60;;;;;;4936746;29;20495;-71
2023/03/01 14:03:11;;;;;;;6.83;6.23;;;15.10;43.60;;;;;;4936559;29;20535;-72
2023/03/01 14:05:40;;;;;;;8.00;7.23;;;16.00;41.50;;;;;;4935923;29;20436;-71
2023/03/01 14:08:20;;;;;;;6.90;6.40;;;16.50;40.50;;;;;;4935914;29;20444;-72
2023/03/01 14:10:55;;;;;;;7.77;7.07;;;17.70;39.40;;;;;;4935859;29;20842;-72
2023/03/01 14:13:35;;;;;;;8.57;7.77;;;19.70;36.80;;;;;;4935602;29;20570;-72
2023/03/01 14:16:15;;;;;;;8.67;7.87;;;20.40;35.20;;;;;;4939734;29;20440;-71
2023/03/01 14:18:51;;;;;;;8.00;7.20;;;21.20;33.50;;;;;;4939842;29;20475;-72
2023/03/01 14:21:18;;;;;;;8.33;7.63;;;21.40;33.00;;;;;;4939687;29;20490;-71
2023/03/01 14:23:46;;;;;;;9.10;8.30;;;20.90;34.30;;;;;;4939623;29;20538;-72
2023/03/01 14:26:20;;;;;;;7.70;7.00;;;21.30;33.40;;;;;;4939285;29;20456;-71
2023/03/01 14:28:49;;;;;;;7.77;7.17;;;21.40;33.20;;;;;;4939278;29;20861;-71
2023/03/01 14:31:35;;;;;;;8.37;7.67;;;21.70;33.30;;;;;;4939444;29;20455;-71
2023/03/01 14:34:05;;;;;;;8.97;8.00;;;22.30;32.60;;;;;;4939373;29;20468;-71
2023/03/01 14:36:35;;;;;;;8.40;7.60;;;22.60;32.10;;;;;;4939353;29;20511;-71
2023/03/01 14:39:05;;;;;;;9.17;8.47;;;22.10;32.30;;;;;;4939277;29;20480;-71
2023/03/01 14:41:36;;;;;;;7.53;6.83;;;22.20;32.50;;;;;;4939318;29;20467;-71
2023/03/01 14:44:06;;;;;;;7.53;6.90;;;22.30;32.50;;;;;;4939345;29;20476;-70
2023/03/01 14:46:36;;;;;;;7.83;7.23;;;22.20;32.10;;;;;;4939129;29;20452;-71
2023/03/01 14:49:07;;;;;;;8.40;7.70;;;22.00;32.50;;;;;;4939576;29;20451;-71
2023/03/01 14:51:37;;;;;;;8.20;7.47;;;22.00;32.60;;;;;;4938822;29;20859;-71
2023/03/01 14:54:17;;;;;;;7.20;6.60;;;21.80;32.60;;;;;;4938983;29;20497;-70
2023/03/01 14:56:47;;;;;;;8.60;7.77;;;21.70;32.90;;;;;;4939225;29;20435;-71
2023/03/01 14:59:14;;;;;;;8.50;7.80;;;21.40;33.30;;;;;;4938856;29;20468;-70
2023/03/01 15:01:42;;;;;;;8.97;8.20;;;20.70;33.90;;;;;;4938587;29;20874;-71
2023/03/01 15:04:13;;;;;;;8.60;7.90;;;20.90;34.20;;;;;;4938711;29;20531;-70
2023/03/01 15:06:40;;;;;;;9.17;8.20;;;20.80;33.80;;;;;;4939052;29;20531;-70
2023/03/01 15:09:08;;;;;;;8.67;7.97;;;20.50;34.50;;;;;;4938679;29;20444;-70
2023/03/01 15:11:36;;;;;;;8.97;8.20;;;20.70;34.50;;;;;;4938431;29;20968;-71
2023/03/01 15:14:40;;;;;;;8.90;8.20;;;20.30;34.50;;;;;;4938370;29;21005;-71
2023/03/01 15:17:24;;;;;;;7.83;7.13;;;20.30;34.60;;;;;;4938508;29;20514;-71
2023/03/01 15:19:51;;;;;;;8.77;8.03;;;19.80;35.30;;;;;;4938537;29;20488;-71
2023/03/01 15:22:18;;;;;;;8.73;8.03;;;18.80;36.20;;;;;;4938554;29;20989;-70
2023/03/01 15:24:49;;;;;;;9.33;8.53;;;18.80;36.40;;;;;;4938482;29;20464;-71
2023/03/01 15:27:18;;;;;;;8.87;8.17;;;18.30;36.90;;;;;;4937897;29;20795;-71
2023/03/01 15:29:51;;;;;;;8.47;7.77;;;17.50;37.60;;;;;;4938428;29;20824;-70
2023/03/01 15:32:27;;;;;;;8.40;7.70;;;16.80;39.10;;;;;;4938451;29;20468;-70
2023/03/01 15:34:55;;;;;;;8.83;8.13;;;16.40;39.90;;;;;;4938349;29;20823;-71
2023/03/01 15:37:41;;;;;;;9.80;8.90;;;15.80;40.90;;;;;;4938266;29;20448;-71
2023/03/01 15:40:21;;;;;;;8.53;7.83;;;15.10;42.30;;;;;;4938012;29;20951;-70
2023/03/01 15:42:47;;;;;;;9.07;8.30;;;14.60;43.10;;;;;;4938164;29;20522;-70
2023/03/01 15:45:26;;;;;;;8.90;8.20;;;13.80;44.40;;;;;;4937710;29;20917;-69
2023/03/01 15:47:57;;;;;;;9.10;8.30;;;13.10;45.50;;;;;;4938072;29;20436;-70
2023/03/01 15:50:26;;;;;;;11.47;10.27;;;12.60;46.50;;;;;;4938192;29;20491;-72
2023/03/01 15:52:54;;;;;;;10.23;9.33;;;12.00;47.90;;;;;;4937762;29;20894;-70
2023/03/01 15:55:22;;;;;;;9.67;8.80;;;11.20;49.60;;;;;;4938458;29;20537;-71
2023/03/01 15:57:49;;;;;;;10.07;9.07;;;10.90;50.40;;;;;;4938006;29;20495;-72
2023/03/01 16:00:17;;;;;;;9.00;8.10;;;10.70;51.00;;;;;;4937963;29;20459;-70
2023/03/01 16:02:45;;;;;;;10.37;8.70;;;10.40;51.60;;;;;;4937877;29;20460;-71
2023/03/01 16:05:21;;;;;;;8.93;8.13;;;10.30;52.10;;;;;;4937820;29;20452;-71
2023/03/01 16:07:47;;;;;;;8.60;7.90;;;10.10;52.50;;;;;;4937857;29;20495;-71
2023/03/01 16:10:14;;;;;;;9.03;8.23;;;9.70;53.20;;;;;;4937973;29;20456;-71
2023/03/01 16:12:41;;;;;;;8.53;7.73;;;9.30;54.00;;;;;;4937305;29;20958;-71
2023/03/01 16:15:17;;;;;;;9.87;8.93;;;9.10;54.50;;;;;;4978419;23;20522;-70
2023/03/01 16:17:45;;;;;;;9.07;8.13;;;8.90;54.90;;;;;;4957500;29;20836;-71
2023/03/01 16:20:15;;;;;;;9.07;8.27;;;8.60;55.40;;;;;;4956746;29;20475;-70
2023/03/01 16:22:42;;;;;;;10.23;9.20;;;8.40;55.70;;;;;;4956707;29;20439;-70
2023/03/01 16:25:10;;;;;;;9.60;8.77;;;8.20;55.90;;;;;;4956564;29;20475;-71
2023/03/01 16:27:37;;;;;;;9.80;8.90;;;8.10;56.50;;;;;;4956577;29;20459;-70
2023/03/01 16:30:04;;;;;;;11.07;8.77;;;8.10;56.40;;;;;;4956420;29;20502;-70
2023/03/01 16:32:31;;;;;;;8.60;7.80;;;8.10;56.20;;;;;;4956411;29;20454;-70
2023/03/01 16:34:59;;;;;;;9.17;8.27;;;8.10;56.20;;;;;;4956278;29;20467;-71
2023/03/01 16:37:25;;;;;;;9.57;8.67;;;8.10;56.40;;;;;;4955413;28;20448;-71
2023/03/01 16:39:52;;;;;;;8.40;7.63;;;7.90;56.50;;;;;;4956389;29;20486;-70
2023/03/01 16:42:19;;;;;;;9.57;8.77;;;7.90;56.80;;;;;;4955888;29;20949;-70
2023/03/01 16:44:46;;;;;;;8.13;7.40;;;7.70;57.00;;;;;;4956059;29;20826;-71
2023/03/01 16:47:12;;;;;;;9.20;8.40;;;7.60;57.40;;;;;;4956208;29;20450;-71
2023/03/01 16:49:39;;;;;;;8.90;7.87;;;7.60;57.10;;;;;;4956215;29;20447;-73
2023/03/01 16:52:07;;;;;;;9.23;8.33;;;7.60;57.30;;;;;;4956112;29;20446;-71
2023/03/01 16:54:34;;;;;;;9.10;8.20;;;7.60;57.10;;;;;;4955977;29;20467;-71
2023/03/01 16:57:01;;;;;;;8.43;7.63;;;7.60;57.10;;;;;;4956053;29;20455;-71
2023/03/01 16:59:28;;;;;;;8.63;7.90;;;7.70;57.10;;;;;;4955668;29;20490;-70
2023/03/01 17:01:54;;;;;;;9.13;8.23;;;7.60;57.00;;;;;;4955968;29;20451;-71
2023/03/01 17:04:21;;;;;;;9.27;8.43;;;7.80;56.90;;;;;;4956066;29;20477;-71
2023/03/01 17:06:48;;;;;;;8.97;8.17;;;7.70;56.90;;;;;;4955882;29;20451;-69
2023/03/01 17:09:17;;;;;;;8.70;7.90;;;7.80;57.00;;;;;;4955910;29;20455;-70
2023/03/01 17:11:44;;;;;;;8.03;7.33;;;7.70;56.80;;;;;;4955896;29;20463;-71
2023/03/01 17:14:11;;;;;;;9.93;7.87;;;7.70;56.90;;;;;;4955426;29;20483;-71
2023/03/01 17:16:37;;;;;;;8.23;7.37;;;7.80;56.70;;;;;;4955672;29;20510;-71